Terminal Aerodrome Forecast
Issued by NWS

Current Version | Previous Version | Text Only | Print | Product List | Glossary On
Versions: 1 2 3 4 5 6 7 8 9 10 11 12 13 14 15 16
000
FTUS42 KMLB 292300
TAFSFB
TAF
KSFB 292336Z 3000/3024 08005KT P6SM VCSH FEW030 SCT120 OVC250
      TEMPO 3000/3001 -TSRA SCT020 BKN040CB
     FM300400 00000KT P6SM FEW020 SCT120 BKN250
     FM301400 16005KT P6SM SCT035
     FM301800 12009KT P6SM VCTS SCT040CB=

USA.gov is the U.S. government's official web portal to all federal, state and local government web resources and services.